sensor_id;sensor_type;location;lat;lon;timestamp;temperature;humidity
20512;DHT22;10414;52.074;5.126;2023-06-22T00:00:04;20.90;99.90
20512;DHT22;10414;52.074;5.126;2023-06-22T00:02:36;20.80;99.90
20512;DHT22;10414;52.074;5.126;2023-06-22T00:05:04;20.60;99.90
20512;DHT22;10414;52.074;5.126;2023-06-22T00:07:32;20.50;99.90
20512;DHT22;10414;52.074;5.126;2023-06-22T00:10:01;20.50;99.90
20512;DHT22;10414;52.074;5.126;2023-06-22T00:12:27;20.50;99.90
20512;DHT22;10414;52.074;5.126;2023-06-22T00:14:54;20.40;99.90
20512;DHT22;10414;52.074;5.126;2023-06-22T00:17:24;20.50;99.90
20512;DHT22;10414;52.074;5.126;2023-06-22T00:19:51;20.60;99.90
20512;DHT22;10414;52.074;5.126;2023-06-22T00:22:21;20.60;99.90
20512;DHT22;10414;52.074;5.126;2023-06-22T00:24:54;20.50;99.90
20512;DHT22;10414;52.074;5.126;2023-06-22T00:27:22;20.40;99.90
20512;DHT22;10414;52.074;5.126;2023-06-22T00:29:49;20.40;99.90
20512;DHT22;10414;52.074;5.126;2023-06-22T00:32:16;20.30;99.90
20512;DHT22;10414;52.074;5.126;2023-06-22T00:34:46;20.20;99.90
20512;DHT22;10414;52.074;5.126;2023-06-22T00:37:13;20.20;99.90
20512;DHT22;10414;52.074;5.126;2023-06-22T00:39:46;20.10;99.90
20512;DHT22;10414;52.074;5.126;2023-06-22T00:42:13;20.00;99.90
20512;DHT22;10414;52.074;5.126;2023-06-22T00:44:41;20.20;99.90
20512;DHT22;10414;52.074;5.126;2023-06-22T00:47:11;20.00;99.90
20512;DHT22;10414;52.074;5.126;2023-06-22T00:49:39;19.90;99.90
20512;DHT22;10414;52.074;5.126;2023-06-22T00:52:06;19.90;99.90
20512;DHT22;10414;52.074;5.126;2023-06-22T00:54:40;20.00;99.90
20512;DHT22;10414;52.074;5.126;2023-06-22T00:57:11;20.10;99.90
20512;DHT22;10414;52.074;5.126;2023-06-22T00:59:45;20.00;99.90
20512;DHT22;10414;52.074;5.126;2023-06-22T01:02:12;20.00;99.90
20512;DHT22;10414;52.074;5.126;2023-06-22T01:04:39;19.90;99.90
20512;DHT22;10414;52.074;5.126;2023-06-22T01:07:13;20.10;99.90
20512;DHT22;10414;52.074;5.126;2023-06-22T01:09:51;20.10;99.90
20512;DHT22;10414;52.074;5.126;2023-06-22T01:12:19;20.20;99.90
20512;DHT22;10414;52.074;5.126;2023-06-22T01:14:57;20.30;99.90
20512;DHT22;10414;52.074;5.126;2023-06-22T01:17:25;20.10;99.90
20512;DHT22;10414;52.074;5.126;2023-06-22T01:19:57;20.00;99.90
20512;DHT22;10414;52.074;5.126;2023-06-22T01:22:30;20.10;99.90
20512;DHT22;10414;52.074;5.126;2023-06-22T01:25:03;20.00;99.90
20512;DHT22;10414;52.074;5.126;2023-06-22T01:27:40;20.00;99.90
20512;DHT22;10414;52.074;5.126;2023-06-22T01:30:13;19.70;99.90
20512;DHT22;10414;52.074;5.126;2023-06-22T01:32:43;19.90;99.90
20512;DHT22;10414;52.074;5.126;2023-06-22T01:35:11;19.90;99.90
20512;DHT22;10414;52.074;5.126;2023-06-22T01:37:39;19.70;99.90
20512;DHT22;10414;52.074;5.126;2023-06-22T01:40:08;19.50;99.90
20512;DHT22;10414;52.074;5.126;2023-06-22T01:42:35;19.50;99.90
20512;DHT22;10414;52.074;5.126;2023-06-22T01:45:04;19.40;99.90
20512;DHT22;10414;52.074;5.126;2023-06-22T01:47:36;19.50;99.90
20512;DHT22;10414;52.074;5.126;2023-06-22T01:50:03;19.20;99.90
20512;DHT22;10414;52.074;5.126;2023-06-22T01:52:30;19.00;99.90
20512;DHT22;10414;52.074;5.126;2023-06-22T01:54:59;18.70;99.90
20512;DHT22;10414;52.074;5.126;2023-06-22T01:57:26;18.70;99.90
20512;DHT22;10414;52.074;5.126;2023-06-22T02:00:00;18.70;99.90
20512;DHT22;10414;52.074;5.126;2023-06-22T02:02:32;18.80;99.90
20512;DHT22;10414;52.074;5.126;2023-06-22T02:05:06;19.00;99.90
20512;DHT22;10414;52.074;5.126;2023-06-22T02:07:55;19.20;99.90
20512;DHT22;10414;52.074;5.126;2023-06-22T02:10:24;19.20;99.90
20512;DHT22;10414;52.074;5.126;2023-06-22T02:12:57;19.00;99.90
20512;DHT22;10414;52.074;5.126;2023-06-22T02:15:24;18.90;99.90
20512;DHT22;10414;52.074;5.126;2023-06-22T02:17:52;19.00;99.90
20512;DHT22;10414;52.074;5.126;2023-06-22T02:20:20;19.00;99.90
20512;DHT22;10414;52.074;5.126;2023-06-22T02:22:47;18.70;99.90
20512;DHT22;10414;52.074;5.126;2023-06-22T02:25:14;18.70;99.90
20512;DHT22;10414;52.074;5.126;2023-06-22T02:27:41;18.60;99.90
20512;DHT22;10414;52.074;5.126;2023-06-22T02:30:09;18.70;99.90
20512;DHT22;10414;52.074;5.126;2023-06-22T02:32:36;18.60;99.90
20512;DHT22;10414;52.074;5.126;2023-06-22T02:35:07;18.50;99.90
20512;DHT22;10414;52.074;5.126;2023-06-22T02:37:37;18.50;99.90
20512;DHT22;10414;52.074;5.126;2023-06-22T02:40:07;18.40;99.90
20512;DHT22;10414;52.074;5.126;2023-06-22T02:42:36;18.40;99.90
20512;DHT22;10414;52.074;5.126;2023-06-22T02:45:07;18.40;99.90
20512;DHT22;10414;52.074;5.126;2023-06-22T02:47:33;18.50;99.90
20512;DHT22;10414;52.074;5.126;2023-06-22T02:50:01;18.70;99.90
20512;DHT22;10414;52.074;5.126;2023-06-22T02:52:28;18.60;99.90
20512;DHT22;10414;52.074;5.126;2023-06-22T02:54:56;18.60;99.90
20512;DHT22;10414;52.074;5.126;2023-06-22T02:57:23;18.70;99.90
20512;DHT22;10414;52.074;5.126;2023-06-22T02:59:50;18.80;99.90
20512;DHT22;10414;52.074;5.126;2023-06-22T03:02:16;18.70;99.90
20512;DHT22;10414;52.074;5.126;2023-06-22T03:04:46;18.80;99.90
20512;DHT22;10414;52.074;5.126;2023-06-22T03:07:14;18.70;99.90
20512;DHT22;10414;52.074;5.126;2023-06-22T03:09:51;18.60;99.90
20512;DHT22;10414;52.074;5.126;2023-06-22T03:12:21;18.50;99.90
20512;DHT22;10414;52.074;5.126;2023-06-22T03:14:48;18.80;99.90
20512;DHT22;10414;52.074;5.126;2023-06-22T03:17:15;18.90;99.90
20512;DHT22;10414;52.074;5.126;2023-06-22T03:19:42;18.90;99.90
20512;DHT22;10414;52.074;5.126;2023-06-22T03:22:08;18.70;99.90
20512;DHT22;10414;52.074;5.126;2023-06-22T03:24:35;18.60;99.90
20512;DHT22;10414;52.074;5.126;2023-06-22T03:27:05;18.70;99.90
20512;DHT22;10414;52.074;5.126;2023-06-22T03:29:33;18.60;99.90
20512;DHT22;10414;52.074;5.126;2023-06-22T03:32:00;18.50;99.90
20512;DHT22;10414;52.074;5.126;2023-06-22T03:34:27;18.60;99.90
20512;DHT22;10414;52.074;5.126;2023-06-22T03:36:54;18.90;99.90
20512;DHT22;10414;52.074;5.126;2023-06-22T03:39:21;19.00;99.90
20512;DHT22;10414;52.074;5.126;2023-06-22T03:41:48;18.80;99.90
20512;DHT22;10414;52.074;5.126;2023-06-22T03:44:14;18.60;99.90
20512;DHT22;10414;52.074;5.126;2023-06-22T03:46:50;18.60;99.90
20512;DHT22;10414;52.074;5.126;2023-06-22T03:49:17;18.70;99.90
20512;DHT22;10414;52.074;5.126;2023-06-22T03:51:43;18.80;99.90
20512;DHT22;10414;52.074;5.126;2023-06-22T03:54:12;19.10;99.90
20512;DHT22;10414;52.074;5.126;2023-06-22T03:56:39;19.00;99.90
20512;DHT22;10414;52.074;5.126;2023-06-22T03:59:06;18.90;99.90
20512;DHT22;10414;52.074;5.126;2023-06-22T04:01:33;19.00;99.90
20512;DHT22;10414;52.074;5.126;2023-06-22T04:04:04;19.30;99.90
20512;DHT22;10414;52.074;5.126;2023-06-22T04:06:31;19.70;99.90
20512;DHT22;10414;52.074;5.126;2023-06-22T04:08:59;19.80;99.90
20512;DHT22;10414;52.074;5.126;2023-06-22T04:11:26;19.30;99.90
20512;DHT22;10414;52.074;5.126;2023-06-22T04:13:53;19.70;99.90
20512;DHT22;10414;52.074;5.126;2023-06-22T04:16:21;20.30;99.90
20512;DHT22;10414;52.074;5.126;2023-06-22T04:18:48;21.00;99.90
20512;DHT22;10414;52.074;5.126;2023-06-22T04:21:16;21.50;99.90
20512;DHT22;10414;52.074;5.126;2023-06-22T04:23:50;22.20;99.90
20512;DHT22;10414;52.074;5.126;2023-06-22T04:26:17;23.00;99.90
20512;DHT22;10414;52.074;5.126;2023-06-22T04:28:46;24.00;99.90
20512;DHT22;10414;52.074;5.126;2023-06-22T04:31:17;24.60;99.90
20512;DHT22;10414;52.074;5.126;2023-06-22T04:33:45;25.00;99.90
20512;DHT22;10414;52.074;5.126;2023-06-22T04:36:12;24.80;99.90
20512;DHT22;10414;52.074;5.126;2023-06-22T04:38:43;24.80;99.90
20512;DHT22;10414;52.074;5.126;2023-06-22T04:41:10;24.20;99.90
20512;DHT22;10414;52.074;5.126;2023-06-22T04:43:49;24.50;99.90
20512;DHT22;10414;52.074;5.126;2023-06-22T04:46:19;25.10;99.90
20512;DHT22;10414;52.074;5.126;2023-06-22T04:48:49;25.70;99.90
20512;DHT22;10414;52.074;5.126;2023-06-22T04:51:15;26.30;99.90
20512;DHT22;10414;52.074;5.126;2023-06-22T04:53:50;26.20;99.90
20512;DHT22;10414;52.074;5.126;2023-06-22T04:56:17;26.90;99.90
20512;DHT22;10414;52.074;5.126;2023-06-22T04:58:47;27.50;99.90
20512;DHT22;10414;52.074;5.126;2023-06-22T05:01:14;26.90;99.90
20512;DHT22;10414;52.074;5.126;2023-06-22T05:03:40;27.00;99.90
20512;DHT22;10414;52.074;5.126;2023-06-22T05:06:10;28.00;99.90
20512;DHT22;10414;52.074;5.126;2023-06-22T05:08:38;28.60;99.90
20512;DHT22;10414;52.074;5.126;2023-06-22T05:11:07;28.80;99.90
20512;DHT22;10414;52.074;5.126;2023-06-22T05:13:33;28.50;99.90
20512;DHT22;10414;52.074;5.126;2023-06-22T05:16:00;28.10;99.90
20512;DHT22;10414;52.074;5.126;2023-06-22T05:18:28;27.80;99.90
20512;DHT22;10414;52.074;5.126;2023-06-22T05:20:55;27.50;99.90
20512;DHT22;10414;52.074;5.126;2023-06-22T05:23:22;27.70;99.90
20512;DHT22;10414;52.074;5.126;2023-06-22T05:25:51;28.60;99.90
20512;DHT22;10414;52.074;5.126;2023-06-22T05:28:21;29.00;99.90
20512;DHT22;10414;52.074;5.126;2023-06-22T05:30:48;30.00;99.90
20512;DHT22;10414;52.074;5.126;2023-06-22T05:33:15;31.60;98.50
20512;DHT22;10414;52.074;5.126;2023-06-22T05:35:42;32.80;96.70
20512;DHT22;10414;52.074;5.126;2023-06-22T05:38:09;32.50;96.00
20512;DHT22;10414;52.074;5.126;2023-06-22T05:40:35;31.50;96.10
20512;DHT22;10414;52.074;5.126;2023-06-22T05:43:04;28.60;99.20
20512;DHT22;10414;52.074;5.126;2023-06-22T05:45:32;27.40;99.90
20512;DHT22;10414;52.074;5.126;2023-06-22T05:48:02;27.90;99.90
20512;DHT22;10414;52.074;5.126;2023-06-22T05:50:29;28.50;99.90
20512;DHT22;10414;52.074;5.126;2023-06-22T05:52:55;27.30;99.90
20512;DHT22;10414;52.074;5.126;2023-06-22T05:55:22;27.00;99.90
20512;DHT22;10414;52.074;5.126;2023-06-22T05:57:49;27.80;99.90
20512;DHT22;10414;52.074;5.126;2023-06-22T06:00:17;28.10;99.90
20512;DHT22;10414;52.074;5.126;2023-06-22T06:02:49;27.60;99.90
20512;DHT22;10414;52.074;5.126;2023-06-22T06:05:19;27.30;99.90
20512;DHT22;10414;52.074;5.126;2023-06-22T06:07:45;27.60;99.90
20512;DHT22;10414;52.074;5.126;2023-06-22T06:10:12;28.50;99.90
20512;DHT22;10414;52.074;5.126;2023-06-22T06:12:39;28.00;99.90
20512;DHT22;10414;52.074;5.126;2023-06-22T06:15:09;27.10;99.90
20512;DHT22;10414;52.074;5.126;2023-06-22T06:17:46;26.90;99.90
20512;DHT22;10414;52.074;5.126;2023-06-22T06:20:18;27.60;99.90
20512;DHT22;10414;52.074;5.126;2023-06-22T06:22:48;27.40;99.90
20512;DHT22;10414;52.074;5.126;2023-06-22T06:25:16;27.70;99.90
20512;DHT22;10414;52.074;5.126;2023-06-22T06:27:46;28.40;99.90
20512;DHT22;10414;52.074;5.126;2023-06-22T06:30:14;29.60;99.90
20512;DHT22;10414;52.074;5.126;2023-06-22T06:32:42;30.10;99.90
20512;DHT22;10414;52.074;5.126;2023-06-22T06:35:14;30.10;99.90
20512;DHT22;10414;52.074;5.126;2023-06-22T06:37:43;30.40;99.90
20512;DHT22;10414;52.074;5.126;2023-06-22T06:40:12;30.30;99.90
20512;DHT22;10414;52.074;5.126;2023-06-22T06:42:43;30.00;99.90
20512;DHT22;10414;52.074;5.126;2023-06-22T06:45:11;31.90;99.00
20512;DHT22;10414;52.074;5.126;2023-06-22T06:47:38;32.30;98.00
20512;DHT22;10414;52.074;5.126;2023-06-22T06:50:06;31.80;98.00
20512;DHT22;10414;52.074;5.126;2023-06-22T06:52:34;30.90;98.60
20512;DHT22;10414;52.074;5.126;2023-06-22T06:55:01;31.20;98.80
20512;DHT22;10414;52.074;5.126;2023-06-22T06:57:30;31.50;98.30
20512;DHT22;10414;52.074;5.126;2023-06-22T06:59:57;31.10;98.10
20512;DHT22;10414;52.074;5.126;2023-06-22T07:02:26;31.50;98.30
20512;DHT22;10414;52.074;5.126;2023-06-22T07:04:54;31.00;98.30
20512;DHT22;10414;52.074;5.126;2023-06-22T07:07:21;30.60;98.60
20512;DHT22;10414;52.074;5.126;2023-06-22T07:09:50;31.10;98.60
20512;DHT22;10414;52.074;5.126;2023-06-22T07:12:20;30.30;99.00
20512;DHT22;10414;52.074;5.126;2023-06-22T07:14:46;31.00;98.70
20512;DHT22;10414;52.074;5.126;2023-06-22T07:17:13;30.60;99.00
20512;DHT22;10414;52.074;5.126;2023-06-22T07:19:40;30.00;99.20
20512;DHT22;10414;52.074;5.126;2023-06-22T07:22:07;29.50;99.90
20512;DHT22;10414;52.074;5.126;2023-06-22T07:24:34;29.90;99.30
20512;DHT22;10414;52.074;5.126;2023-06-22T07:27:05;29.90;99.00
20512;DHT22;10414;52.074;5.126;2023-06-22T07:29:32;30.60;98.40
20512;DHT22;10414;52.074;5.126;2023-06-22T07:31:59;31.00;98.00
20512;DHT22;10414;52.074;5.126;2023-06-22T07:34:33;32.90;96.70
20512;DHT22;10414;52.074;5.126;2023-06-22T07:37:00;33.50;95.60
20512;DHT22;10414;52.074;5.126;2023-06-22T07:39:27;35.40;94.00
20512;DHT22;10414;52.074;5.126;2023-06-22T07:41:54;34.90;93.10
20512;DHT22;10414;52.074;5.126;2023-06-22T07:44:22;34.70;92.90
20512;DHT22;10414;52.074;5.126;2023-06-22T07:46:49;34.60;93.10
20512;DHT22;10414;52.074;5.126;2023-06-22T07:49:17;34.20;93.50
20512;DHT22;10414;52.074;5.126;2023-06-22T07:51:44;35.30;92.50
20512;DHT22;10414;52.074;5.126;2023-06-22T07:54:10;34.50;92.70
20512;DHT22;10414;52.074;5.126;2023-06-22T07:56:37;34.20;93.00
20512;DHT22;10414;52.074;5.126;2023-06-22T07:59:05;33.90;93.30
20512;DHT22;10414;52.074;5.126;2023-06-22T08:01:42;34.10;93.20
20512;DHT22;10414;52.074;5.126;2023-06-22T08:04:09;33.60;93.30
20512;DHT22;10414;52.074;5.126;2023-06-22T08:06:36;34.50;92.30
20512;DHT22;10414;52.074;5.126;2023-06-22T08:09:06;33.70;92.60
20512;DHT22;10414;52.074;5.126;2023-06-22T08:11:33;34.40;92.20
20512;DHT22;10414;52.074;5.126;2023-06-22T08:14:00;35.00;91.90
20512;DHT22;10414;52.074;5.126;2023-06-22T08:16:26;35.10;91.60
20512;DHT22;10414;52.074;5.126;2023-06-22T08:18:57;34.00;92.00
20512;DHT22;10414;52.074;5.126;2023-06-22T08:21:27;33.80;91.50
20512;DHT22;10414;52.074;5.126;2023-06-22T08:23:56;33.20;91.70
20512;DHT22;10414;52.074;5.126;2023-06-22T08:26:25;32.60;91.30
20512;DHT22;10414;52.074;5.126;2023-06-22T08:28:52;31.70;92.10
20512;DHT22;10414;52.074;5.126;2023-06-22T08:31:19;31.90;92.40
20512;DHT22;10414;52.074;5.126;2023-06-22T08:33:54;31.80;92.20
20512;DHT22;10414;52.074;5.126;2023-06-22T08:36:22;32.50;92.00
20512;DHT22;10414;52.074;5.126;2023-06-22T08:38:49;33.30;91.10
20512;DHT22;10414;52.074;5.126;2023-06-22T08:41:18;32.50;91.20
20512;DHT22;10414;52.074;5.126;2023-06-22T08:43:46;31.80;92.60
20512;DHT22;10414;52.074;5.126;2023-06-22T08:46:15;31.80;92.40
20512;DHT22;10414;52.074;5.126;2023-06-22T08:48:45;32.30;92.60
20512;DHT22;10414;52.074;5.126;2023-06-22T08:51:12;32.30;93.00
20512;DHT22;10414;52.074;5.126;2023-06-22T08:53:40;32.40;92.90
20512;DHT22;10414;52.074;5.126;2023-06-22T08:56:08;30.60;92.90
20512;DHT22;10414;52.074;5.126;2023-06-22T08:58:35;29.70;93.80
20512;DHT22;10414;52.074;5.126;2023-06-22T09:01:02;29.10;94.70
20512;DHT22;10414;52.074;5.126;2023-06-22T09:03:30;28.80;95.20
20512;DHT22;10414;52.074;5.126;2023-06-22T09:05:59;28.30;94.60
20512;DHT22;10414;52.074;5.126;2023-06-22T09:08:29;27.90;95.90
20512;DHT22;10414;52.074;5.126;2023-06-22T09:10:57;27.60;96.30
20512;DHT22;10414;52.074;5.126;2023-06-22T09:13:24;27.60;96.00
20512;DHT22;10414;52.074;5.126;2023-06-22T09:15:51;28.10;95.70
20512;DHT22;10414;52.074;5.126;2023-06-22T09:18:18;28.40;95.00
20512;DHT22;10414;52.074;5.126;2023-06-22T09:20:45;28.20;95.40
20512;DHT22;10414;52.074;5.126;2023-06-22T09:23:12;28.00;96.30
20512;DHT22;10414;52.074;5.126;2023-06-22T09:25:39;27.80;97.10
20512;DHT22;10414;52.074;5.126;2023-06-22T09:28:07;27.90;97.30
20512;DHT22;10414;52.074;5.126;2023-06-22T09:30:34;28.00;97.00
20512;DHT22;10414;52.074;5.126;2023-06-22T09:33:01;27.90;96.30
20512;DHT22;10414;52.074;5.126;2023-06-22T09:35:28;27.80;97.00
20512;DHT22;10414;52.074;5.126;2023-06-22T09:37:55;27.80;96.90
20512;DHT22;10414;52.074;5.126;2023-06-22T09:40:22;27.90;97.10
20512;DHT22;10414;52.074;5.126;2023-06-22T09:42:49;28.30;97.20
20512;DHT22;10414;52.074;5.126;2023-06-22T09:45:17;28.70;96.50
20512;DHT22;10414;52.074;5.126;2023-06-22T09:47:44;28.70;96.50
20512;DHT22;10414;52.074;5.126;2023-06-22T09:50:13;29.00;96.10
20512;DHT22;10414;52.074;5.126;2023-06-22T09:52:40;28.80;96.30
20512;DHT22;10414;52.074;5.126;2023-06-22T09:55:10;28.40;97.00
20512;DHT22;10414;52.074;5.126;2023-06-22T09:57:37;27.90;97.30
20512;DHT22;10414;52.074;5.126;2023-06-22T10:00:04;27.30;97.40
20512;DHT22;10414;52.074;5.126;2023-06-22T10:02:35;27.00;98.20
20512;DHT22;10414;52.074;5.126;2023-06-22T10:05:06;26.70;97.80
20512;DHT22;10414;52.074;5.126;2023-06-22T10:07:33;26.30;97.90
20512;DHT22;10414;52.074;5.126;2023-06-22T10:10:00;26.10;98.40
20512;DHT22;10414;52.074;5.126;2023-06-22T10:12:30;26.00;98.90
20512;DHT22;10414;52.074;5.126;2023-06-22T10:14:57;25.90;99.70
20512;DHT22;10414;52.074;5.126;2023-06-22T10:17:24;25.90;99.30
20512;DHT22;10414;52.074;5.126;2023-06-22T10:19:52;25.80;99.50
20512;DHT22;10414;52.074;5.126;2023-06-22T10:22:22;25.80;99.90
20512;DHT22;10414;52.074;5.126;2023-06-22T10:24:49;26.00;99.70
20512;DHT22;10414;52.074;5.126;2023-06-22T10:27:15;26.10;99.50
20512;DHT22;10414;52.074;5.126;2023-06-22T10:29:43;26.10;99.70
20512;DHT22;10414;52.074;5.126;2023-06-22T10:32:10;26.20;99.90
20512;DHT22;10414;52.074;5.126;2023-06-22T10:34:40;26.10;99.90
20512;DHT22;10414;52.074;5.126;2023-06-22T10:37:08;25.80;99.90
20512;DHT22;10414;52.074;5.126;2023-06-22T10:39:35;25.70;99.90
20512;DHT22;10414;52.074;5.126;2023-06-22T10:42:02;25.70;99.90
20512;DHT22;10414;52.074;5.126;2023-06-22T10:44:30;25.70;99.90
20512;DHT22;10414;52.074;5.126;2023-06-22T10:46:57;25.90;99.90
20512;DHT22;10414;52.074;5.126;2023-06-22T10:49:24;25.90;99.90
20512;DHT22;10414;52.074;5.126;2023-06-22T10:51:52;26.00;99.90
20512;DHT22;10414;52.074;5.126;2023-06-22T10:54:21;26.00;99.90
20512;DHT22;10414;52.074;5.126;2023-06-22T10:56:48;26.10;99.90
20512;DHT22;10414;52.074;5.126;2023-06-22T10:59:14;26.20;99.90
20512;DHT22;10414;52.074;5.126;2023-06-22T11:01:45;26.40;99.90
20512;DHT22;10414;52.074;5.126;2023-06-22T11:04:15;26.00;99.90
20512;DHT22;10414;52.074;5.126;2023-06-22T11:06:43;26.10;99.90
20512;DHT22;10414;52.074;5.126;2023-06-22T11:09:10;25.90;99.90
20512;DHT22;10414;52.074;5.126;2023-06-22T11:11:38;25.70;99.90
20512;DHT22;10414;52.074;5.126;2023-06-22T11:14:05;25.70;99.90
20512;DHT22;10414;52.074;5.126;2023-06-22T11:16:32;26.10;99.90
20512;DHT22;10414;52.074;5.126;2023-06-22T11:19:00;26.10;99.90
20512;DHT22;10414;52.074;5.126;2023-06-22T11:21:26;26.00;99.90
20512;DHT22;10414;52.074;5.126;2023-06-22T11:23:54;25.90;99.90
20512;DHT22;10414;52.074;5.126;2023-06-22T11:26:20;26.10;99.90
20512;DHT22;10414;52.074;5.126;2023-06-22T11:28:49;26.10;99.90
20512;DHT22;10414;52.074;5.126;2023-06-22T11:31:18;26.20;99.90
20512;DHT22;10414;52.074;5.126;2023-06-22T11:33:45;26.20;99.90
20512;DHT22;10414;52.074;5.126;2023-06-22T11:36:13;26.30;99.90
20512;DHT22;10414;52.074;5.126;2023-06-22T11:38:40;26.40;99.90
20512;DHT22;10414;52.074;5.126;2023-06-22T11:41:08;26.40;99.90
20512;DHT22;10414;52.074;5.126;2023-06-22T11:43:35;26.50;99.90
20512;DHT22;10414;52.074;5.126;2023-06-22T11:46:04;26.70;99.90
20512;DHT22;10414;52.074;5.126;2023-06-22T11:48:31;26.40;99.90
20512;DHT22;10414;52.074;5.126;2023-06-22T11:50:58;26.50;99.90
20512;DHT22;10414;52.074;5.126;2023-06-22T11:53:26;26.50;99.90
20512;DHT22;10414;52.074;5.126;2023-06-22T11:55:53;26.40;99.90
20512;DHT22;10414;52.074;5.126;2023-06-22T11:58:21;26.30;99.90
20512;DHT22;10414;52.074;5.126;2023-06-22T12:00:48;26.20;99.90
20512;DHT22;10414;52.074;5.126;2023-06-22T12:03:17;26.20;99.90
20512;DHT22;10414;52.074;5.126;2023-06-22T12:05:46;26.00;99.90
20512;DHT22;10414;52.074;5.126;2023-06-22T12:08:13;26.10;99.90
20512;DHT22;10414;52.074;5.126;2023-06-22T12:10:40;26.20;99.90
20512;DHT22;10414;52.074;5.126;2023-06-22T12:13:10;26.10;99.90
20512;DHT22;10414;52.074;5.126;2023-06-22T12:15:37;25.80;99.90
20512;DHT22;10414;52.074;5.126;2023-06-22T12:18:06;25.70;99.90
20512;DHT22;10414;52.074;5.126;2023-06-22T12:20:38;25.40;99.90
20512;DHT22;10414;52.074;5.126;2023-06-22T12:23:10;25.50;99.90
20512;DHT22;10414;52.074;5.126;2023-06-22T12:25:37;25.20;99.90
20512;DHT22;10414;52.074;5.126;2023-06-22T12:28:04;24.80;99.90
20512;DHT22;10414;52.074;5.126;2023-06-22T12:30:32;24.70;99.90
20512;DHT22;10414;52.074;5.126;2023-06-22T12:32:59;24.60;99.90
20512;DHT22;10414;52.074;5.126;2023-06-22T12:35:26;24.60;99.90
20512;DHT22;10414;52.074;5.126;2023-06-22T12:37:54;24.50;99.90
20512;DHT22;10414;52.074;5.126;2023-06-22T12:40:21;24.40;99.90
20512;DHT22;10414;52.074;5.126;2023-06-22T12:42:48;24.60;99.90
20512;DHT22;10414;52.074;5.126;2023-06-22T12:45:15;24.60;99.90
20512;DHT22;10414;52.074;5.126;2023-06-22T12:47:42;24.60;99.90
20512;DHT22;10414;52.074;5.126;2023-06-22T12:50:09;24.50;99.90
20512;DHT22;10414;52.074;5.126;2023-06-22T12:52:37;24.30;99.90
20512;DHT22;10414;52.074;5.126;2023-06-22T12:55:08;24.30;99.90
20512;DHT22;10414;52.074;5.126;2023-06-22T12:57:35;24.30;99.90
20512;DHT22;10414;52.074;5.126;2023-06-22T13:00:02;24.30;99.90
20512;DHT22;10414;52.074;5.126;2023-06-22T13:02:31;24.20;99.90
20512;DHT22;10414;52.074;5.126;2023-06-22T13:04:57;24.50;99.90
20512;DHT22;10414;52.074;5.126;2023-06-22T13:07:26;24.50;99.90
20512;DHT22;10414;52.074;5.126;2023-06-22T13:09:56;24.50;99.90
20512;DHT22;10414;52.074;5.126;2023-06-22T13:12:24;24.50;99.90
20512;DHT22;10414;52.074;5.126;2023-06-22T13:14:54;24.40;99.90
20512;DHT22;10414;52.074;5.126;2023-06-22T13:17:21;24.00;99.90
20512;DHT22;10414;52.074;5.126;2023-06-22T13:19:48;24.10;99.90
20512;DHT22;10414;52.074;5.126;2023-06-22T13:22:33;23.70;99.90
20512;DHT22;10414;52.074;5.126;2023-06-22T13:25:06;23.50;99.90
20512;DHT22;10414;52.074;5.126;2023-06-22T13:27:34;23.90;99.90
20512;DHT22;10414;52.074;5.126;2023-06-22T13:30:01;23.80;99.90
20512;DHT22;10414;52.074;5.126;2023-06-22T13:32:29;23.70;99.90
20512;DHT22;10414;52.074;5.126;2023-06-22T13:34:56;23.70;99.90
20512;DHT22;10414;52.074;5.126;2023-06-22T13:37:25;23.80;99.90
20512;DHT22;10414;52.074;5.126;2023-06-22T13:39:55;24.10;99.90
20512;DHT22;10414;52.074;5.126;2023-06-22T13:42:25;24.00;99.90
20512;DHT22;10414;52.074;5.126;2023-06-22T13:44:54;23.80;99.90
20512;DHT22;10414;52.074;5.126;2023-06-22T13:47:21;23.60;99.90
20512;DHT22;10414;52.074;5.126;2023-06-22T13:49:48;23.40;99.90
20512;DHT22;10414;52.074;5.126;2023-06-22T13:52:15;23.50;99.90
20512;DHT22;10414;52.074;5.126;2023-06-22T13:54:45;23.50;99.90
20512;DHT22;10414;52.074;5.126;2023-06-22T13:57:12;23.20;99.90
20512;DHT22;10414;52.074;5.126;2023-06-22T13:59:40;22.90;99.90
20512;DHT22;10414;52.074;5.126;2023-06-22T14:02:14;22.80;99.90
20512;DHT22;10414;52.074;5.126;2023-06-22T14:04:41;22.70;99.90
20512;DHT22;10414;52.074;5.126;2023-06-22T14:07:08;22.60;99.90
20512;DHT22;10414;52.074;5.126;2023-06-22T14:09:37;22.50;99.90
20512;DHT22;10414;52.074;5.126;2023-06-22T14:12:04;22.60;99.90
20512;DHT22;10414;52.074;5.126;2023-06-22T14:14:33;22.50;99.90
20512;DHT22;10414;52.074;5.126;2023-06-22T14:17:00;22.40;99.90
20512;DHT22;10414;52.074;5.126;2023-06-22T14:19:31;22.40;99.90
20512;DHT22;10414;52.074;5.126;2023-06-22T14:22:01;22.30;99.90
20512;DHT22;10414;52.074;5.126;2023-06-22T14:24:27;22.30;99.90
20512;DHT22;10414;52.074;5.126;2023-06-22T14:26:54;22.30;99.90
20512;DHT22;10414;52.074;5.126;2023-06-22T14:29:21;22.30;99.90
20512;DHT22;10414;52.074;5.126;2023-06-22T14:31:49;22.30;99.90
20512;DHT22;10414;52.074;5.126;2023-06-22T14:34:18;22.10;99.90
20512;DHT22;10414;52.074;5.126;2023-06-22T14:36:46;22.00;99.90
20512;DHT22;10414;52.074;5.126;2023-06-22T14:39:13;22.00;99.90
20512;DHT22;10414;52.074;5.126;2023-06-22T14:41:40;22.00;99.90
20512;DHT22;10414;52.074;5.126;2023-06-22T14:44:07;22.00;99.90
20512;DHT22;10414;52.074;5.126;2023-06-22T14:46:34;21.80;99.90
20512;DHT22;10414;52.074;5.126;2023-06-22T14:49:00;21.80;99.90
20512;DHT22;10414;52.074;5.126;2023-06-22T14:51:29;21.80;99.90
20512;DHT22;10414;52.074;5.126;2023-06-22T14:53:59;21.60;99.90
20512;DHT22;10414;52.074;5.126;2023-06-22T14:56:26;21.50;99.90
20512;DHT22;10414;52.074;5.126;2023-06-22T14:58:52;21.40;99.90
20512;DHT22;10414;52.074;5.126;2023-06-22T15:01:19;21.40;99.90
20512;DHT22;10414;52.074;5.126;2023-06-22T15:03:46;21.50;99.90
20512;DHT22;10414;52.074;5.126;2023-06-22T15:06:13;21.50;99.90
20512;DHT22;10414;52.074;5.126;2023-06-22T15:08:40;21.60;99.90
20512;DHT22;10414;52.074;5.126;2023-06-22T15:11:09;21.60;99.90
20512;DHT22;10414;52.074;5.126;2023-06-22T15:13:41;21.60;99.90
20512;DHT22;10414;52.074;5.126;2023-06-22T15:16:08;21.40;99.90
20512;DHT22;10414;52.074;5.126;2023-06-22T15:18:36;21.40;99.90
20512;DHT22;10414;52.074;5.126;2023-06-22T15:21:03;21.30;99.90
20512;DHT22;10414;52.074;5.126;2023-06-22T15:23:31;21.20;99.90
20512;DHT22;10414;52.074;5.126;2023-06-22T15:26:02;21.20;99.90
20512;DHT22;10414;52.074;5.126;2023-06-22T15:28:31;21.10;99.90
20512;DHT22;10414;52.074;5.126;2023-06-22T15:31:00;21.00;99.90
20512;DHT22;10414;52.074;5.126;2023-06-22T15:33:27;21.00;99.90
20512;DHT22;10414;52.074;5.126;2023-06-22T15:36:03;21.00;99.90